createdAt,value
2023-04-15T00:00:38.081Z,1.70
2023-04-15T00:02:42.668Z,1.60
2023-04-15T00:04:47.245Z,1.53
2023-04-15T00:06:54.661Z,1.70
2023-04-15T00:08:59.238Z,1.70
2023-04-15T00:11:05.615Z,1.77
2023-04-15T00:13:10.290Z,1.70
2023-04-15T00:15:13.407Z,1.87
2023-04-15T00:17:17.330Z,1.60
2023-04-15T00:19:21.968Z,1.90
2023-04-15T00:21:24.977Z,1.43
2023-04-15T00:23:28.800Z,1.70
2023-04-15T00:25:31.836Z,1.97
2023-04-15T00:27:34.740Z,1.70
2023-04-15T00:29:38.965Z,2.10
2023-04-15T00:31:42.507Z,1.87
2023-04-15T00:33:45.641Z,1.80
2023-04-15T00:35:48.572Z,2.00
2023-04-15T00:37:51.628Z,1.83
2023-04-15T00:39:54.638Z,1.90
2023-04-15T00:41:59.770Z,1.60
2023-04-15T00:44:09.323Z,1.63
2023-04-15T00:46:17.595Z,1.80
2023-04-15T00:48:22.250Z,2.03
2023-04-15T00:50:25.687Z,1.97
2023-04-15T00:52:28.657Z,1.83
2023-04-15T00:54:31.690Z,1.80
2023-04-15T00:56:38.031Z,1.90
2023-04-15T00:58:41.161Z,1.67
2023-04-15T01:00:44.567Z,2.10
2023-04-15T01:02:48.907Z,1.80
2023-04-15T01:04:53.148Z,2.10
2023-04-15T01:06:57.972Z,1.97
2023-04-15T01:09:04.592Z,1.90
2023-04-15T01:11:08.668Z,1.97
2023-04-15T01:13:11.513Z,2.00
2023-04-15T01:15:16.531Z,1.90
2023-04-15T01:17:19.622Z,1.80
2023-04-15T01:19:24.045Z,1.60
2023-04-15T01:21:28.047Z,1.60
2023-04-15T01:23:30.966Z,1.63
2023-04-15T01:25:35.831Z,1.90
2023-04-15T01:27:40.990Z,1.77
2023-04-15T01:29:44.080Z,1.90
2023-04-15T01:31:56.004Z,1.77
2023-04-15T01:34:02.229Z,1.77
2023-04-15T01:36:06.083Z,1.70
2023-04-15T01:38:10.286Z,1.70
2023-04-15T01:40:18.046Z,1.83
2023-04-15T01:42:22.605Z,2.07
2023-04-15T01:44:37.410Z,1.70
2023-04-15T01:46:49.778Z,2.00
2023-04-15T01:48:55.904Z,1.50
2023-04-15T01:50:59.274Z,1.70
2023-04-15T01:53:04.113Z,1.97
2023-04-15T01:55:07.976Z,1.70
2023-04-15T01:57:11.185Z,2.00
2023-04-15T01:59:15.373Z,2.03
2023-04-15T02:01:19.769Z,2.00
2023-04-15T02:03:23.390Z,1.83
2023-04-15T02:05:29.199Z,1.83
2023-04-15T02:07:34.989Z,1.80
2023-04-15T02:09:38.644Z,1.77
2023-04-15T02:11:47.808Z,2.00
2023-04-15T02:13:50.755Z,2.00
2023-04-15T02:15:59.804Z,2.07
2023-04-15T02:18:05.731Z,1.83
2023-04-15T02:20:12.873Z,1.80
2023-04-15T02:22:18.766Z,2.23
2023-04-15T02:24:22.714Z,2.33
2023-04-15T02:26:26.044Z,2.07
2023-04-15T02:28:32.376Z,1.90
2023-04-15T02:30:41.303Z,2.47
2023-04-15T02:32:53.210Z,2.07
2023-04-15T02:35:03.300Z,2.20
2023-04-15T02:37:08.269Z,1.97
2023-04-15T02:39:12.755Z,2.10
2023-04-15T02:41:16.952Z,1.87
2023-04-15T02:43:21.751Z,2.17
2023-04-15T02:45:27.941Z,2.70
2023-04-15T02:47:30.810Z,2.50
2023-04-15T02:49:37.439Z,2.40
2023-04-15T02:51:41.205Z,2.30
2023-04-15T02:53:44.321Z,2.23
2023-04-15T02:55:47.220Z,2.00
2023-04-15T02:57:50.621Z,2.17
2023-04-15T02:59:53.581Z,2.40
2023-04-15T03:02:00.856Z,2.00
2023-04-15T03:04:04.037Z,2.10
2023-04-15T03:06:08.845Z,2.47
2023-04-15T03:08:15.807Z,2.30
2023-04-15T03:10:21.213Z,2.53
2023-04-15T03:12:24.233Z,2.47
2023-04-15T03:14:32.611Z,2.03
2023-04-15T03:16:35.898Z,2.50
2023-04-15T03:18:40.704Z,2.73
2023-04-15T03:20:44.007Z,2.87
2023-04-15T03:22:52.874Z,2.37
2023-04-15T03:24:58.123Z,2.40
2023-04-15T03:27:03.357Z,2.00
2023-04-15T03:29:09.323Z,2.20
2023-04-15T03:31:12.369Z,2.07
2023-04-15T03:33:16.961Z,2.80
2023-04-15T03:35:21.371Z,1.90
2023-04-15T03:37:27.441Z,2.10
2023-04-15T03:39:31.917Z,2.07
2023-04-15T03:41:37.084Z,2.20
2023-04-15T03:43:41.862Z,2.13
2023-04-15T03:45:50.742Z,2.20
2023-04-15T03:47:53.638Z,2.00
2023-04-15T03:49:58.204Z,2.10
2023-04-15T03:52:02.477Z,2.10
2023-04-15T03:54:05.660Z,2.37
2023-04-15T03:56:17.290Z,2.30
2023-04-15T03:58:20.513Z,2.40
2023-04-15T04:00:26.553Z,2.47
2023-04-15T04:02:29.869Z,2.17
2023-04-15T04:04:32.961Z,2.53
2023-04-15T04:06:36.087Z,2.17
2023-04-15T04:08:41.865Z,2.30
2023-04-15T04:10:44.730Z,2.00
2023-04-15T04:12:49.008Z,2.27
2023-04-15T04:14:52.068Z,2.37
2023-04-15T04:16:54.957Z,2.10
2023-04-15T04:18:57.817Z,2.20
2023-04-15T04:21:01.315Z,2.27
2023-04-15T04:23:04.503Z,2.20
2023-04-15T04:25:10.197Z,1.90
2023-04-15T04:27:16.065Z,2.30
2023-04-15T04:29:20.470Z,2.57
2023-04-15T04:31:28.299Z,2.13
2023-04-15T04:33:31.235Z,2.50
2023-04-15T04:35:37.757Z,1.90
2023-04-15T04:37:40.787Z,1.80
2023-04-15T04:39:45.114Z,2.00
2023-04-15T04:41:48.100Z,2.30
2023-04-15T04:43:51.056Z,2.60
2023-04-15T04:45:55.283Z,2.53
2023-04-15T04:48:00.588Z,2.40
2023-04-15T04:50:10.880Z,2.40
2023-04-15T04:52:13.948Z,2.40
2023-04-15T04:54:17.607Z,2.30
2023-04-15T04:56:20.560Z,2.17
2023-04-15T04:58:23.447Z,2.40
2023-04-15T05:00:28.235Z,2.03
2023-04-15T05:02:36.256Z,1.90
2023-04-15T05:04:42.163Z,2.17
2023-04-15T05:06:45.100Z,2.23
2023-04-15T05:08:48.076Z,2.00
2023-04-15T05:10:53.265Z,1.90
2023-04-15T05:12:56.145Z,2.13
2023-04-15T05:14:59.229Z,1.97
2023-04-15T05:17:02.179Z,2.00
2023-04-15T05:19:10.211Z,2.10
2023-04-15T05:21:13.437Z,2.00
2023-04-15T05:23:22.446Z,1.77
2023-04-15T05:25:25.390Z,2.27
2023-04-15T05:27:28.283Z,2.10
2023-04-15T05:29:31.219Z,2.17
2023-04-15T05:31:38.550Z,2.40
2023-04-15T05:33:42.765Z,2.13
2023-04-15T05:35:50.476Z,2.27
2023-04-15T05:37:54.315Z,2.13
2023-04-15T05:39:57.783Z,2.20
2023-04-15T05:42:03.582Z,2.10
2023-04-15T05:44:06.718Z,1.90
2023-04-15T05:46:13.125Z,2.20
2023-04-15T05:48:16.228Z,2.03
2023-04-15T05:50:19.415Z,2.40
2023-04-15T05:52:23.720Z,2.00
2023-04-15T05:54:27.888Z,1.97
2023-04-15T05:56:31.664Z,2.23
2023-04-15T05:58:37.478Z,2.27
2023-04-15T06:00:40.482Z,2.47
2023-04-15T06:02:43.829Z,2.10
2023-04-15T06:04:47.293Z,2.37
2023-04-15T06:06:51.309Z,2.00
2023-04-15T06:08:55.906Z,2.00
2023-04-15T06:11:00.032Z,1.83
2023-04-15T06:13:03.209Z,2.20
2023-04-15T06:15:10.041Z,2.20
2023-04-15T06:17:14.946Z,2.40
2023-04-15T06:19:18.313Z,1.83
2023-04-15T06:21:23.481Z,2.10
2023-04-15T06:23:29.673Z,1.63
2023-04-15T06:25:34.518Z,2.20
2023-04-15T06:27:43.116Z,1.80
2023-04-15T06:29:46.584Z,2.00
2023-04-15T06:31:49.647Z,2.17
2023-04-15T06:33:52.784Z,1.80
2023-04-15T06:35:55.785Z,2.13
2023-04-15T06:37:58.827Z,1.87
2023-04-15T06:40:02.322Z,2.20
2023-04-15T06:42:06.726Z,2.10
2023-04-15T06:44:09.624Z,2.10
2023-04-15T06:46:12.759Z,1.93
2023-04-15T06:48:18.426Z,2.40
2023-04-15T06:50:21.346Z,2.43
2023-04-15T06:52:24.275Z,2.00
2023-04-15T06:54:27.632Z,2.10
2023-04-15T06:56:34.099Z,2.00
2023-04-15T06:58:38.329Z,2.23
2023-04-15T07:00:41.783Z,2.37
2023-04-15T07:02:47.141Z,2.50
2023-04-15T07:04:50.167Z,1.80
2023-04-15T07:06:57.711Z,2.40
2023-04-15T07:09:01.577Z,2.40
2023-04-15T07:11:05.470Z,2.40
2023-04-15T07:13:08.787Z,2.60
2023-04-15T07:15:15.294Z,2.37
2023-04-15T07:17:20.348Z,2.37
2023-04-15T07:19:24.482Z,2.40
2023-04-15T07:21:28.030Z,2.10
2023-04-15T07:23:31.949Z,2.17
2023-04-15T07:25:34.813Z,1.93
2023-04-15T07:27:37.770Z,2.20
2023-04-15T07:29:41.704Z,1.80
2023-04-15T07:31:46.931Z,1.90
2023-04-15T07:33:52.129Z,1.73
2023-04-15T07:35:57.096Z,1.93
2023-04-15T07:38:00.164Z,2.33
2023-04-15T07:40:06.568Z,2.00
2023-04-15T07:42:09.898Z,2.60
2023-04-15T07:44:12.829Z,2.13
2023-04-15T07:46:20.078Z,2.20
2023-04-15T07:48:24.355Z,1.80
2023-04-15T07:50:27.397Z,2.50
2023-04-15T07:52:30.389Z,2.00
2023-04-15T07:54:33.320Z,2.20
2023-04-15T07:56:38.113Z,1.83
2023-04-15T07:58:41.345Z,2.00
2023-04-15T08:00:44.820Z,1.90
2023-04-15T08:02:48.312Z,2.27
2023-04-15T08:04:54.727Z,2.10
2023-04-15T08:07:02.227Z,1.77
2023-04-15T08:09:05.256Z,2.03
2023-04-15T08:11:09.824Z,1.70
2023-04-15T08:13:12.839Z,1.90
2023-04-15T08:15:19.188Z,1.87
2023-04-15T08:17:22.193Z,1.80
2023-04-15T08:19:28.024Z,2.20
2023-04-15T08:21:32.349Z,2.13
2023-04-15T08:23:35.663Z,1.60
2023-04-15T08:25:38.544Z,2.00
2023-04-15T08:27:44.409Z,1.80
2023-04-15T08:29:49.149Z,1.93
2023-04-15T08:31:52.184Z,1.63
2023-04-15T08:33:59.283Z,1.63
2023-04-15T08:36:05.916Z,1.93
2023-04-15T08:38:10.180Z,1.60
2023-04-15T08:40:13.651Z,1.70
2023-04-15T08:42:21.698Z,1.87
2023-04-15T08:44:25.539Z,1.80
2023-04-15T08:46:28.845Z,1.60
2023-04-15T08:48:34.679Z,1.47
2023-04-15T08:50:40.434Z,1.80
2023-04-15T08:52:43.708Z,1.60
2023-04-15T08:54:50.262Z,1.77
2023-04-15T08:56:53.949Z,1.60
2023-04-15T08:58:57.657Z,2.03
2023-04-15T09:01:00.628Z,1.70
2023-04-15T09:03:03.978Z,1.60
2023-04-15T09:05:08.707Z,1.70
2023-04-15T09:07:11.642Z,1.70
2023-04-15T09:09:15.204Z,1.60
2023-04-15T09:11:20.459Z,1.40
2023-04-15T09:13:25.434Z,1.30
2023-04-15T09:15:29.542Z,1.60
2023-04-15T09:17:34.648Z,1.80
2023-04-15T09:19:39.562Z,1.80
2023-04-15T09:21:45.328Z,1.70
2023-04-15T09:23:59.954Z,1.40
2023-04-15T09:26:06.464Z,1.60
2023-04-15T09:28:11.284Z,1.70
2023-04-15T09:30:14.159Z,1.60
2023-04-15T09:32:17.910Z,1.60
2023-04-15T09:34:23.377Z,1.57
2023-04-15T09:36:29.827Z,1.70
2023-04-15T09:38:33.622Z,1.47
2023-04-15T09:40:37.567Z,1.57
2023-04-15T09:42:55.988Z,1.60
2023-04-15T09:45:12.629Z,1.57
2023-04-15T09:47:29.167Z,1.67
2023-04-15T09:49:33.399Z,1.90
2023-04-15T09:51:37.297Z,1.80
2023-04-15T09:53:40.336Z,1.87
2023-04-15T09:55:46.094Z,1.47
2023-04-15T09:57:49.050Z,1.60
2023-04-15T09:59:54.907Z,1.43
2023-04-15T10:02:01.111Z,1.50
2023-04-15T10:04:09.775Z,1.50
2023-04-15T10:06:15.430Z,1.50
2023-04-15T10:08:23.890Z,1.50
2023-04-15T10:10:27.328Z,2.00
2023-04-15T10:12:33.447Z,1.80
2023-04-15T10:14:38.956Z,2.43
2023-04-15T10:16:48.897Z,1.80
2023-04-15T10:18:56.918Z,1.67
2023-04-15T10:21:02.241Z,1.67
2023-04-15T10:23:09.471Z,1.60
2023-04-15T10:25:13.685Z,1.50
2023-04-15T10:27:19.008Z,1.80
2023-04-15T10:29:27.200Z,1.40
2023-04-15T10:31:31.853Z,1.50
2023-04-15T10:33:36.152Z,1.80
2023-04-15T10:35:40.849Z,1.30
2023-04-15T10:37:43.761Z,1.80
2023-04-15T10:39:46.684Z,1.50
2023-04-15T10:42:08.174Z,1.60
2023-04-15T10:44:12.028Z,1.60
2023-04-15T10:46:25.653Z,1.73
2023-04-15T10:48:29.892Z,1.80
2023-04-15T10:50:36.420Z,1.60
2023-04-15T10:52:43.067Z,1.97
2023-04-15T10:54:46.462Z,1.53
2023-04-15T10:56:53.682Z,1.60
2023-04-15T10:58:56.579Z,2.00
2023-04-15T11:00:59.527Z,1.90
2023-04-15T11:03:08.131Z,2.07
2023-04-15T11:05:14.121Z,2.10
2023-04-15T11:07:17.227Z,1.83
2023-04-15T11:09:34.285Z,1.90
2023-04-15T11:12:09.391Z,2.00
2023-04-15T11:14:17.938Z,1.93
2023-04-15T11:16:21.461Z,2.33
2023-04-15T11:18:25.807Z,1.73
2023-04-15T11:20:29.675Z,2.43
2023-04-15T11:22:32.715Z,2.00
2023-04-15T11:24:38.386Z,1.80
2023-04-15T11:26:45.885Z,2.00
2023-04-15T11:28:51.131Z,2.17
2023-04-15T11:30:55.488Z,1.80
2023-04-15T11:33:01.932Z,2.20
2023-04-15T11:35:05.283Z,2.00
2023-04-15T11:37:08.330Z,2.10
2023-04-15T11:39:11.262Z,2.23
2023-04-15T11:41:15.655Z,2.50
2023-04-15T11:43:20.832Z,2.27
2023-04-15T11:45:23.817Z,2.10
2023-04-15T11:47:26.698Z,2.50
2023-04-15T11:49:33.913Z,2.10
2023-04-15T11:51:39.956Z,2.00
2023-04-15T11:53:47.125Z,1.70
2023-04-15T11:55:51.660Z,2.00
2023-04-15T11:58:11.368Z,1.80
2023-04-15T12:00:17.400Z,1.60
2023-04-15T12:02:20.586Z,1.90
2023-04-15T12:04:26.192Z,2.13
2023-04-15T12:06:34.953Z,1.90
2023-04-15T12:09:11.269Z,1.80
2023-04-15T12:11:16.491Z,1.80
2023-04-15T12:13:21.072Z,1.50
2023-04-15T12:15:28.172Z,2.60
2023-04-15T12:17:51.096Z,1.80
2023-04-15T12:19:59.471Z,1.70
2023-04-15T12:22:04.295Z,1.60
2023-04-15T12:24:11.272Z,1.60
2023-04-15T12:26:14.173Z,1.50
2023-04-15T12:28:20.683Z,1.40
2023-04-15T12:30:26.766Z,1.57
2023-04-15T12:32:29.671Z,1.60
2023-04-15T12:34:34.083Z,1.60
2023-04-15T12:36:37.926Z,1.60
2023-04-15T12:38:43.690Z,1.60
2023-04-15T12:40:48.388Z,1.67
2023-04-15T12:42:53.357Z,1.73
2023-04-15T12:44:57.587Z,1.90
2023-04-15T12:47:03.673Z,1.80
2023-04-15T12:49:10.206Z,2.30
2023-04-15T12:51:13.214Z,1.90
2023-04-15T12:53:16.193Z,2.30
2023-04-15T12:55:23.695Z,4.50
2023-04-15T12:57:26.606Z,2.90
2023-04-15T12:59:29.903Z,2.90
2023-04-15T13:01:34.331Z,2.77
2023-04-15T13:03:37.464Z,3.00
2023-04-15T13:05:40.858Z,2.73
2023-04-15T13:07:43.813Z,2.20
2023-04-15T13:09:46.731Z,2.40
2023-04-15T13:11:51.109Z,2.10
2023-04-15T13:13:56.898Z,2.50
2023-04-15T13:16:02.143Z,4.00
2023-04-15T13:18:06.702Z,2.80
2023-04-15T13:20:10.687Z,2.47
2023-04-15T13:22:14.837Z,2.10
2023-04-15T13:24:17.830Z,2.00
2023-04-15T13:26:21.229Z,1.97
2023-04-15T13:28:27.292Z,1.90
2023-04-15T13:30:31.327Z,1.93
2023-04-15T13:32:35.679Z,2.10
2023-04-15T13:34:41.949Z,2.20
2023-04-15T13:36:45.015Z,1.90
2023-04-15T13:38:51.194Z,3.57
2023-04-15T13:40:54.967Z,2.77
2023-04-15T13:42:58.514Z,2.63
2023-04-15T13:45:01.396Z,5.23
2023-04-15T13:47:04.844Z,2.80
2023-04-15T13:49:07.753Z,2.40
2023-04-15T13:51:13.066Z,3.07
2023-04-15T13:53:15.909Z,2.00
2023-04-15T13:55:23.014Z,2.40
2023-04-15T13:57:27.869Z,2.30
2023-04-15T13:59:35.793Z,2.10
2023-04-15T14:01:41.419Z,1.90
2023-04-15T14:03:44.514Z,2.30
2023-04-15T14:05:47.558Z,2.27
2023-04-15T14:07:56.741Z,2.10
2023-04-15T14:09:59.618Z,2.47
2023-04-15T14:12:05.686Z,2.20
2023-04-15T14:14:10.781Z,2.17
2023-04-15T14:16:13.876Z,1.90
2023-04-15T14:18:16.745Z,2.60
2023-04-15T14:20:21.744Z,2.10
2023-04-15T14:22:24.661Z,2.30
2023-04-15T14:24:33.029Z,2.17
2023-04-15T14:26:36.077Z,2.73
2023-04-15T14:28:40.996Z,3.30
2023-04-15T14:30:44.071Z,3.93
2023-04-15T14:32:47.144Z,2.80
2023-04-15T14:34:50.194Z,2.17
2023-04-15T14:36:58.310Z,2.93
2023-04-15T14:39:02.762Z,4.23
2023-04-15T14:41:07.994Z,4.00
2023-04-15T14:43:12.424Z,2.90
2023-04-15T14:45:19.078Z,2.27
2023-04-15T14:47:23.434Z,2.77
2023-04-15T14:49:27.475Z,2.53
2023-04-15T14:51:31.351Z,2.00
2023-04-15T14:53:38.055Z,2.50
2023-04-15T14:55:41.111Z,1.90
2023-04-15T14:57:45.746Z,2.23
2023-04-15T14:59:49.247Z,2.20
2023-04-15T15:01:54.564Z,1.90
2023-04-15T15:03:57.639Z,1.50
2023-04-15T15:06:01.192Z,1.70
2023-04-15T15:08:04.113Z,1.80
2023-04-15T15:10:07.862Z,1.90
2023-04-15T15:12:11.880Z,1.53
2023-04-15T15:14:16.091Z,1.83
2023-04-15T15:16:19.112Z,1.90
2023-04-15T15:18:22.195Z,1.70
2023-04-15T15:20:25.831Z,1.90
2023-04-15T15:22:28.660Z,1.40
2023-04-15T15:24:31.711Z,1.83
2023-04-15T15:26:34.619Z,1.70
2023-04-15T15:28:38.722Z,1.73
2023-04-15T15:30:44.186Z,1.77
2023-04-15T15:32:47.370Z,2.03
2023-04-15T15:34:50.230Z,2.30
2023-04-15T15:36:53.292Z,2.30
2023-04-15T15:38:56.207Z,2.83
2023-04-15T15:40:59.514Z,2.20
2023-04-15T15:43:02.385Z,1.93
2023-04-15T15:45:06.094Z,1.90
2023-04-15T15:47:10.459Z,1.87
2023-04-15T15:49:14.128Z,2.03
2023-04-15T15:51:17.040Z,2.00
2023-04-15T15:53:20.908Z,1.77
2023-04-15T15:55:25.164Z,2.00
2023-04-15T15:57:28.108Z,1.70
2023-04-15T15:59:34.882Z,2.03
2023-04-15T16:01:37.928Z,2.20
2023-04-15T16:03:42.906Z,1.80
2023-04-15T16:05:51.956Z,1.83
2023-04-15T16:07:54.901Z,1.90
2023-04-15T16:09:57.833Z,2.10
2023-04-15T16:12:03.689Z,1.90
2023-04-15T16:14:06.631Z,2.27
2023-04-15T16:16:09.810Z,2.27
2023-04-15T16:18:12.828Z,2.10
2023-04-15T16:20:17.190Z,1.90
2023-04-15T16:22:20.357Z,1.70
2023-04-15T16:24:23.283Z,1.70
2023-04-15T16:26:27.990Z,1.53
2023-04-15T16:28:33.307Z,1.80
2023-04-15T16:30:37.044Z,1.70
2023-04-15T16:32:40.271Z,1.60
2023-04-15T16:34:43.210Z,1.90
2023-04-15T16:36:49.363Z,1.60
2023-04-15T16:38:52.479Z,1.60
2023-04-15T16:40:56.562Z,1.70
2023-04-15T16:42:59.638Z,1.90
2023-04-15T16:45:02.586Z,2.00
2023-04-15T16:47:08.871Z,1.97
2023-04-15T16:49:14.470Z,2.00
2023-04-15T16:51:23.610Z,2.10
2023-04-15T16:53:28.029Z,2.37
2023-04-15T16:55:31.182Z,2.70
2023-04-15T16:58:00.721Z,2.30
2023-04-15T16:59:57.301Z,2.40
2023-04-15T17:02:02.646Z,2.13
2023-04-15T17:04:08.663Z,2.23
2023-04-15T17:06:11.656Z,2.20
2023-04-15T17:08:14.559Z,2.40
2023-04-15T17:10:19.444Z,2.40
2023-04-15T17:12:22.347Z,2.40
2023-04-15T17:14:25.616Z,2.13
2023-04-15T17:16:30.160Z,2.00
2023-04-15T17:18:33.085Z,2.37
2023-04-15T17:20:37.649Z,2.50
2023-04-15T17:22:40.715Z,2.40
2023-04-15T17:24:43.994Z,2.30
2023-04-15T17:26:49.916Z,2.27
2023-04-15T17:28:52.859Z,2.20
2023-04-15T17:30:56.264Z,2.33
2023-04-15T17:32:59.331Z,2.50
2023-04-15T17:35:02.864Z,2.50
2023-04-15T17:37:08.861Z,2.20
2023-04-15T17:39:13.957Z,2.20
2023-04-15T17:41:18.840Z,2.40
2023-04-15T17:43:24.507Z,2.60
2023-04-15T17:45:31.611Z,2.37
2023-04-15T17:47:34.793Z,2.63
2023-04-15T17:49:38.146Z,2.80
2023-04-15T17:51:46.968Z,2.47
2023-04-15T17:53:50.332Z,2.50
2023-04-15T17:55:59.803Z,2.33
2023-04-15T17:58:04.139Z,2.20
2023-04-15T18:00:15.199Z,2.50
2023-04-15T18:02:18.551Z,2.80
2023-04-15T18:04:23.366Z,2.60
2023-04-15T18:06:31.320Z,2.20
2023-04-15T18:08:34.321Z,2.50
2023-04-15T18:10:40.375Z,2.43
2023-04-15T18:12:51.058Z,2.30
2023-04-15T18:14:54.303Z,2.40
2023-04-15T18:17:00.731Z,2.40
2023-04-15T18:19:03.690Z,2.50
2023-04-15T18:21:16.072Z,2.43
2023-04-15T18:23:19.077Z,2.53
2023-04-15T18:25:25.567Z,2.30
2023-04-15T18:27:30.610Z,2.37
2023-04-15T18:29:36.053Z,2.30
2023-04-15T18:31:39.004Z,2.20
2023-04-15T18:33:43.380Z,2.40
2023-04-15T18:35:47.182Z,2.60
2023-04-15T18:37:54.096Z,1.90
2023-04-15T18:39:57.368Z,2.33
2023-04-15T18:42:07.205Z,2.40
2023-04-15T18:44:10.282Z,2.20
2023-04-15T18:46:13.660Z,2.50
2023-04-15T18:48:17.570Z,1.83
2023-04-15T18:50:22.039Z,2.13
2023-04-15T18:52:27.696Z,2.07
2023-04-15T18:54:30.612Z,2.20
2023-04-15T18:56:33.740Z,2.10
2023-04-15T18:59:26.567Z,2.50
2023-04-15T19:01:02.459Z,2.37
2023-04-15T19:03:07.340Z,2.20
2023-04-15T19:05:10.683Z,2.43
2023-04-15T19:07:15.106Z,2.47
2023-04-15T19:09:18.091Z,2.53
2023-04-15T19:11:21.728Z,2.40
2023-04-15T19:13:28.049Z,2.23
2023-04-15T19:15:31.484Z,2.47
2023-04-15T19:17:34.466Z,2.33
2023-04-15T19:19:38.448Z,2.40
2023-04-15T19:21:41.620Z,2.70
2023-04-15T19:23:47.387Z,2.60
2023-04-15T19:25:53.428Z,2.43
2023-04-15T19:27:57.885Z,2.50
2023-04-15T19:30:03.224Z,2.50
2023-04-15T19:32:06.769Z,2.80
2023-04-15T19:34:09.643Z,2.47
2023-04-15T19:36:14.467Z,2.40
2023-04-15T19:38:18.786Z,2.33
2023-04-15T19:40:23.154Z,2.37
2023-04-15T19:42:28.066Z,2.50
2023-04-15T19:44:31.355Z,2.43
2023-04-15T19:46:34.464Z,2.80
2023-04-15T19:48:42.519Z,2.60
2023-04-15T19:50:45.628Z,2.63
2023-04-15T19:52:48.513Z,2.50
2023-04-15T19:54:51.546Z,2.40
2023-04-15T19:56:55.826Z,2.57
2023-04-15T19:59:04.024Z,2.57
2023-04-15T20:01:07.264Z,2.90
2023-04-15T20:03:12.119Z,2.20
2023-04-15T20:05:15.347Z,2.30
2023-04-15T20:07:19.038Z,2.50
2023-04-15T20:09:22.078Z,2.60
2023-04-15T20:12:10.014Z,2.50
2023-04-15T20:13:53.350Z,2.60
2023-04-15T20:15:57.600Z,2.40
2023-04-15T20:18:00.689Z,2.47
2023-04-15T20:20:03.941Z,2.60
2023-04-15T20:22:06.934Z,2.60
2023-04-15T20:24:10.126Z,2.77
2023-04-15T20:26:17.695Z,2.50
2023-04-15T20:28:23.397Z,2.77
2023-04-15T20:30:29.193Z,2.80
2023-04-15T20:32:35.861Z,2.70
2023-04-15T20:34:44.669Z,2.60
2023-04-15T20:36:47.607Z,2.47
2023-04-15T20:38:53.412Z,2.70
2023-04-15T20:40:57.689Z,2.40
2023-04-15T20:43:00.944Z,2.80
2023-04-15T20:45:04.260Z,2.40
2023-04-15T20:47:09.221Z,2.30
2023-04-15T20:49:12.355Z,2.30
2023-04-15T20:51:15.316Z,2.50
2023-04-15T20:53:20.669Z,2.37
2023-04-15T20:55:28.331Z,2.13
2023-04-15T20:57:32.677Z,2.10
2023-04-15T20:59:36.048Z,2.00
2023-04-15T21:01:41.640Z,2.23
2023-04-15T21:03:48.474Z,2.20
2023-04-15T21:05:51.402Z,2.03
2023-04-15T21:07:57.577Z,2.20
2023-04-15T21:10:00.614Z,2.10
2023-04-15T21:12:03.713Z,2.40
2023-04-15T21:14:08.601Z,2.40
2023-04-15T21:16:11.583Z,2.20
2023-04-15T21:18:20.627Z,2.10
2023-04-15T21:20:28.149Z,2.23
2023-04-15T21:22:33.219Z,2.20
2023-04-15T21:24:36.773Z,2.23
2023-04-15T21:26:45.287Z,2.03
2023-04-15T21:28:49.708Z,2.30
2023-04-15T21:30:53.124Z,2.20
2023-04-15T21:32:56.752Z,2.20
2023-04-15T21:34:59.811Z,2.10
2023-04-15T21:37:04.623Z,2.20
2023-04-15T21:39:10.848Z,2.20
2023-04-15T21:41:13.802Z,2.30
2023-04-15T21:43:20.311Z,2.40
2023-04-15T21:45:23.458Z,2.40
2023-04-15T21:47:27.424Z,2.20
2023-04-15T21:49:31.885Z,2.40
2023-04-15T21:51:39.404Z,2.30
2023-04-15T21:53:43.691Z,2.27
2023-04-15T21:55:47.032Z,2.10
2023-04-15T21:57:50.221Z,2.53
2023-04-15T21:59:56.187Z,2.13
2023-04-15T22:01:59.339Z,2.03
2023-04-15T22:04:05.960Z,2.47
2023-04-15T22:06:09.252Z,2.30
2023-04-15T22:08:21.803Z,2.37
2023-04-15T22:10:28.686Z,2.33
2023-04-15T22:12:31.798Z,2.43
2023-04-15T22:14:36.279Z,2.23
2023-04-15T22:16:39.187Z,2.67
2023-04-15T22:18:45.394Z,2.10
2023-04-15T22:20:50.682Z,2.10
2023-04-15T22:22:54.491Z,2.20
2023-04-15T22:24:57.480Z,2.13
2023-04-15T22:27:04.231Z,2.43
2023-04-15T22:29:07.760Z,2.20
2023-04-15T22:31:11.364Z,2.50
2023-04-15T22:33:14.384Z,2.33
2023-04-15T22:35:17.493Z,2.10
2023-04-15T22:37:20.480Z,2.40
2023-04-15T22:39:28.775Z,2.20
2023-04-15T22:41:31.816Z,2.20
2023-04-15T22:43:36.079Z,2.20
2023-04-15T22:45:40.713Z,2.20
2023-04-15T22:47:45.593Z,1.90
2023-04-15T22:49:51.426Z,2.80
2023-04-15T22:51:57.171Z,2.43
2023-04-15T22:54:00.363Z,2.20
2023-04-15T22:56:03.399Z,2.10
2023-04-15T22:58:06.301Z,2.30
2023-04-15T23:00:16.886Z,2.40
2023-04-15T23:02:19.908Z,2.20
2023-04-15T23:04:26.225Z,2.17
2023-04-15T23:06:34.161Z,2.27
2023-04-15T23:08:39.417Z,2.60
2023-04-15T23:10:44.486Z,2.07
2023-04-15T23:12:47.839Z,2.00
2023-04-15T23:14:50.790Z,2.10
2023-04-15T23:16:58.463Z,2.30
2023-04-15T23:19:01.388Z,2.03
2023-04-15T23:21:04.913Z,2.13
2023-04-15T23:23:07.970Z,1.90
2023-04-15T23:25:13.125Z,2.00
2023-04-15T23:27:17.530Z,2.40
2023-04-15T23:29:24.016Z,2.00
2023-04-15T23:31:27.183Z,2.17
2023-04-15T23:33:33.615Z,2.00
2023-04-15T23:35:37.709Z,1.97
2023-04-15T23:37:43.014Z,2.10
2023-04-15T23:39:46.423Z,2.23
2023-04-15T23:41:49.687Z,2.13
2023-04-15T23:43:52.751Z,2.10
2023-04-15T23:45:55.644Z,2.20
2023-04-15T23:47:58.650Z,2.07
2023-04-15T23:50:03.916Z,2.20
2023-04-15T23:52:10.122Z,2.20
2023-04-15T23:54:13.239Z,2.10
2023-04-15T23:56:24.256Z,2.17
2023-04-15T23:58:27.223Z,2.23
